Time;durP1;ratioP1;P1;durP2;ratioP2;P2;SDS_P1;SDS_P2;PMS_P1;PMS_P2;Temp;Humidity;BMP_temperature;BMP_pressure;BME280_temperature;BME280_humidity;BME280_pressure;Samples;Min_cycle;Max_cycle;Signal;HPM_P1;HPM_P2
2022/02/02 00:00:34;;;;;;;10.23;5.90;;;;;;;-1.13;52.33;99383.62;1691912;82;21067;-79
2022/02/02 00:03:10;;;;;;;8.43;5.33;;;;;;;-1.15;52.60;99379.47;1712398;82;21018;-80
2022/02/02 00:06:22;;;;;;;11.77;6.50;;;;;;;-1.19;52.76;99377.15;1706125;82;21530;-81
2022/02/02 00:08:11;;;;;;;9.80;5.90;;;;;;;-1.20;53.16;99385.13;1707245;82;21090;-79
2022/02/02 00:16:05;;;;;;;8.03;5.57;;;;;;;-1.34;53.84;99382.40;1693729;83;21091;-78
2022/02/02 00:21:03;;;;;;;11.67;6.23;;;;;;;-1.42;54.26;99380.46;1697984;83;21039;-77
2022/02/02 00:23:28;;;;;;;11.27;7.07;;;;;;;-1.42;54.57;99378.34;1692191;82;20989;-77
2022/02/02 00:26:06;;;;;;;13.00;7.23;;;;;;;-1.43;54.80;99376.67;1709329;82;21151;-78
2022/02/02 00:28:29;;;;;;;10.13;5.67;;;;;;;-1.51;55.05;99372.12;1698139;82;20989;-78
2022/02/02 00:30:53;;;;;;;13.30;6.87;;;;;;;-1.52;55.33;99364.44;1660160;85;21029;-78
2022/02/02 00:33:24;;;;;;;12.25;7.03;;;;;;;-1.55;55.33;99364.20;1665083;82;21491;-76
2022/02/02 00:36:05;;;;;;;9.67;6.87;;;;;;;-1.55;55.63;99360.28;1716581;82;21113;-79
2022/02/02 00:38:26;;;;;;;10.67;7.47;;;;;;;-1.56;55.81;99352.12;1709181;82;21050;-78
2022/02/02 00:40:52;;;;;;;10.90;7.28;;;;;;;-1.57;55.85;99351.76;1714474;82;21510;-78
2022/02/02 00:43:18;;;;;;;13.18;9.10;;;;;;;-1.55;55.82;99356.86;1698601;82;21010;-79
2022/02/02 00:45:46;;;;;;;10.82;7.92;;;;;;;-1.60;56.15;99351.56;1714010;82;21046;-78
2022/02/02 00:48:15;;;;;;;13.57;7.43;;;;;;;-1.59;56.19;99344.05;1715809;82;20973;-77
2022/02/02 00:50:42;;;;;;;14.30;7.27;;;;;;;-1.60;56.31;99336.34;1717022;82;21135;-79
2022/02/02 00:53:10;;;;;;;14.30;8.75;;;;;;;-1.56;56.64;99333.83;1716382;82;21018;-79
2022/02/02 00:55:37;;;;;;;17.93;10.80;;;;;;;-1.56;56.82;99336.44;1715658;82;20962;-79
2022/02/02 00:58:03;;;;;;;13.47;8.23;;;;;;;-1.56;56.88;99325.98;1676730;84;21081;-77
2022/02/02 01:00:30;;;;;;;11.73;7.67;;;;;;;-1.58;56.92;99333.13;1651530;85;21049;-78
2022/02/02 01:02:56;;;;;;;15.63;8.17;;;;;;;-1.63;56.96;99328.30;1701799;83;21076;-79
2022/02/02 01:05:23;;;;;;;16.85;9.95;;;;;;;-1.59;56.79;99327.55;1707535;82;20962;-78
2022/02/02 01:10:28;;;;;;;12.70;8.57;;;;;;;-1.69;57.06;99331.95;1706544;82;21011;-78
2022/02/02 01:13:07;;;;;;;13.90;8.30;;;;;;;-1.72;57.24;99330.41;1706928;81;20978;-79
2022/02/02 01:28:26;;;;;;;14.03;7.97;;;;;;;-1.79;57.66;99306.63;1701708;83;21016;-78
2022/02/02 01:30:54;;;;;;;13.57;7.77;;;;;;;-1.86;57.84;99304.19;1711457;83;21472;-77
2022/02/02 01:33:21;;;;;;;13.63;7.17;;;;;;;-1.90;58.13;99305.88;1711567;82;21024;-78
2022/02/02 01:35:49;;;;;;;13.03;7.10;;;;;;;-1.93;58.14;99305.69;1712522;83;21079;-77
2022/02/02 01:38:15;;;;;;;16.17;8.33;;;;;;;-1.98;58.14;99299.56;1716339;82;21024;-78
2022/02/02 01:40:47;;;;;;;11.78;7.60;;;;;;;-2.00;58.38;99309.78;1695094;83;21005;-78
2022/02/02 01:43:18;;;;;;;12.10;8.30;;;;;;;-2.02;58.35;99309.09;1697767;83;20997;-76
2022/02/02 01:45:47;;;;;;;14.67;9.40;;;;;;;-2.17;58.42;99287.73;1703935;81;21030;-79
2022/02/02 01:48:20;;;;;;;11.57;7.70;;;;;;;-2.09;58.49;99296.21;1701123;83;21565;-79
2022/02/02 01:55:40;;;;;;;14.50;7.87;;;;;;;-2.09;58.57;99301.44;1699004;83;21096;-77
2022/02/02 02:00:42;;;;;;;14.27;8.13;;;;;;;-2.20;58.59;99283.62;1671372;84;21122;-77
2022/02/02 02:03:07;;;;;;;11.48;6.70;;;;;;;-2.26;58.74;99284.61;1680469;83;21078;-77
2022/02/02 02:05:33;;;;;;;10.95;6.90;;;;;;;-2.29;58.74;99281.80;1692965;83;21182;-77
2022/02/02 02:08:01;;;;;;;13.57;6.90;;;;;;;-2.30;58.80;99287.14;1676216;84;21032;-78
2022/02/02 02:10:27;;;;;;;11.25;6.72;;;;;;;-2.30;58.87;99279.31;1683809;84;21049;-77
2022/02/02 02:13:03;;;;;;;9.68;6.97;;;;;;;-2.29;58.21;99280.98;1677778;84;20990;-76
2022/02/02 02:15:27;;;;;;;10.60;6.93;;;;;;;-2.27;58.06;99281.67;1690615;84;21059;-76
2022/02/02 02:17:50;;;;;;;13.53;6.73;;;;;;;-2.32;58.13;99274.22;1673514;84;21043;-76
2022/02/02 02:20:16;;;;;;;10.38;6.22;;;;;;;-2.32;58.20;99275.52;1679537;84;21080;-75
2022/02/02 02:22:44;;;;;;;10.35;7.25;;;;;;;-2.31;58.11;99261.53;1674633;84;21054;-75
2022/02/02 02:25:24;;;;;;;8.00;6.40;;;;;;;-2.35;57.82;99257.05;1697188;83;21028;-76
2022/02/02 02:27:51;;;;;;;10.90;6.23;;;;;;;-2.32;57.82;99259.05;1673644;84;21032;-76
2022/02/02 02:57:06;;;;;;;10.63;6.27;;;;;;;-2.71;57.88;99249.29;1714684;79;21091;-76
2022/02/02 02:59:43;;;;;;;12.77;6.30;;;;;;;-2.71;58.07;99238.86;1717087;83;21026;-79
2022/02/02 03:49:15;;;;;;;9.00;5.93;;;;;;;-2.84;58.49;99225.20;1711725;82;21431;-78
2022/02/02 03:59:29;;;;;;;9.73;6.47;;;;;;;-2.97;58.67;99233.23;1646340;86;21505;-76
2022/02/02 04:07:07;;;;;;;12.30;7.40;;;;;;;-3.01;58.62;99227.44;1672401;85;21550;-77
2022/02/02 04:09:36;;;;;;;13.07;6.93;;;;;;;-3.05;58.81;99226.51;1710826;82;21047;-77
2022/02/02 05:06:30;;;;;;;15.58;8.40;;;;;;;-3.63;60.66;99240.80;1673685;84;21514;-78
2022/02/02 05:08:41;;;;;;;12.00;6.47;;;;;;;-3.64;60.76;99232.61;1664058;84;21536;-77
2022/02/02 05:11:22;;;;;;;12.63;7.40;;;;;;;-3.70;60.83;99232.30;1699591;82;21494;-77
2022/02/02 05:16:34;;;;;;;12.63;6.83;;;;;;;-3.72;60.85;99222.82;1697788;82;21013;-76
2022/02/02 05:19:24;;;;;;;14.07;7.07;;;;;;;-3.69;60.83;99224.37;1696742;82;21553;-77
2022/02/02 05:48:49;;;;;;;11.83;6.97;;;;;;;-3.75;60.80;99245.23;1714116;82;21168;-76
2022/02/02 05:53:28;;;;;;;14.73;7.67;;;;;;;-3.69;60.54;99246.51;1713247;82;21077;-76
2022/02/02 05:55:56;;;;;;;11.03;6.80;;;;;;;-3.70;60.62;99251.84;1712467;82;21101;-76
2022/02/02 05:58:29;;;;;;;12.80;7.00;;;;;;;-3.67;60.89;99248.97;1694874;81;20987;-78
2022/02/02 06:00:59;;;;;;;12.10;7.10;;;;;;;-3.66;60.73;99256.66;1733711;81;21137;-78
2022/02/02 06:03:37;;;;;;;10.03;5.77;;;;;;;-3.66;60.67;99252.75;1737425;81;21020;-80
2022/02/02 06:06:06;;;;;;;14.60;8.80;;;;;;;-3.62;60.41;99253.33;1733457;81;21078;-80
2022/02/02 06:08:34;;;;;;;16.07;6.13;;;;;;;-3.58;60.35;99253.43;1726892;81;21066;-78
2022/02/02 06:11:04;;;;;;;;;;;;;;;-3.58;60.05;99259.94;1735094;81;21030;-79
2022/02/02 06:13:41;;;;;;;10.40;6.03;;;;;;;-3.50;60.12;99248.90;1742043;81;20111;-79
2022/02/02 06:16:01;;;;;;;12.43;6.63;;;;;;;-3.54;60.04;99248.35;1742545;81;21515;-76
2022/02/02 06:18:28;;;;;;;10.00;6.33;;;;;;;-3.49;60.07;99243.57;1743977;81;21575;-77
2022/02/02 06:20:58;;;;;;;8.83;5.03;;;;;;;-3.48;59.83;99240.02;1719771;81;21085;-75
2022/02/02 06:23:30;;;;;;;16.93;6.60;;;;;;;-3.40;59.57;99245.91;1728755;81;21046;-75
2022/02/02 06:26:00;;;;;;;12.83;7.17;;;;;;;-3.32;59.57;99245.61;1721560;81;21092;-67
2022/02/02 06:28:32;;;;;;;11.30;6.33;;;;;;;-3.27;59.17;99253.55;1730423;82;21077;-64
2022/02/02 06:31:02;;;;;;;12.50;6.33;;;;;;;-3.37;59.11;99223.03;1715188;81;21017;-64
2022/02/02 06:33:36;;;;;;;13.87;7.60;;;;;;;-3.17;59.07;99250.03;1722463;81;21028;-64
2022/02/02 06:36:06;;;;;;;9.60;6.37;;;;;;;-3.15;59.10;99246.82;1681303;84;21139;-63
2022/02/02 06:38:33;;;;;;;10.37;7.13;;;;;;;-3.10;58.96;99250.37;1696878;83;21027;-64
2022/02/02 06:41:01;;;;;;;15.83;6.77;;;;;;;-3.03;58.98;99245.45;1669591;84;20990;-67
2022/02/02 06:43:28;;;;;;;17.47;8.53;;;;;;;-3.03;58.71;99241.54;1696456;83;21515;-67
2022/02/02 06:45:59;;;;;;;12.73;7.43;;;;;;;-2.97;58.55;99239.26;1703203;82;21537;-67
2022/02/02 06:48:28;;;;;;;17.70;7.17;;;;;;;-2.91;58.73;99247.05;1708752;82;21061;-66
2022/02/02 06:51:02;;;;;;;11.13;7.10;;;;;;;-2.79;58.58;99242.57;1678251;84;21089;-67
2022/02/02 06:53:38;;;;;;;11.90;6.60;;;;;;;-2.64;58.19;99249.09;1649676;85;21517;-65
2022/02/02 06:59:10;;;;;;;23.07;9.40;;;;;;;-2.46;57.02;99249.31;1729157;81;21011;-65
2022/02/02 07:02:05;;;;;;;10.70;6.17;;;;;;;-2.38;57.05;99240.83;1738276;79;20998;-63
2022/02/02 07:04:23;;;;;;;11.00;7.23;;;;;;;-2.27;56.94;99245.94;1745203;79;21054;-67
2022/02/02 07:06:59;;;;;;;10.10;6.60;;;;;;;-2.23;56.08;99233.45;1756490;79;21049;-62
2022/02/02 07:14:56;;;;;;;12.43;6.80;;;;;;;-2.13;56.06;99240.81;1726932;81;21071;-64
2022/02/02 07:22:11;;;;;;;13.80;7.07;;;;;;;-2.11;55.67;99231.55;1693336;82;21127;-73
2022/02/02 07:27:24;;;;;;;13.37;7.10;;;;;;;-2.08;55.86;99241.25;1681003;84;21106;-64
2022/02/02 07:29:38;;;;;;;16.20;7.50;;;;;;;-2.08;55.44;99233.42;1728776;81;21076;-66
2022/02/02 07:34:55;;;;;;;15.73;7.23;;;;;;;-2.01;55.44;99238.94;1736723;80;20980;-65
2022/02/02 07:37:30;;;;;;;18.47;6.23;;;;;;;-1.94;55.28;99232.68;1741837;80;21123;-66
2022/02/02 07:39:50;;;;;;;10.77;6.13;;;;;;;-1.92;55.26;99234.67;1749091;80;21026;-72
2022/02/02 07:42:19;;;;;;;10.80;5.97;;;;;;;-1.93;54.97;99237.77;1732507;81;21124;-63
2022/02/02 07:44:47;;;;;;;8.27;5.03;;;;;;;-1.97;55.15;99241.13;1689686;83;21017;-61
2022/02/02 07:47:16;;;;;;;11.67;5.77;;;;;;;-1.93;54.98;99240.39;1702056;82;21072;-63
2022/02/02 07:49:48;;;;;;;10.70;6.00;;;;;;;-1.97;55.38;99239.83;1706849;82;21549;-64
2022/02/02 07:52:17;;;;;;;9.73;6.00;;;;;;;-1.94;55.32;99226.16;1703213;82;21046;-63
2022/02/02 07:54:46;;;;;;;10.93;5.33;;;;;;;-1.91;55.16;99235.85;1706505;84;21041;-63
2022/02/02 07:57:18;;;;;;;12.30;7.73;;;;;;;-1.89;55.13;99229.19;1723947;81;21054;-64
2022/02/02 07:59:54;;;;;;;14.37;8.10;;;;;;;-1.83;55.37;99235.17;1738666;81;22203;-63
2022/02/02 08:02:18;;;;;;;16.23;7.17;;;;;;;-1.74;55.37;99238.77;1736433;81;21076;-63
2022/02/02 08:04:43;;;;;;;10.57;6.83;;;;;;;-1.63;55.29;99241.25;1685276;84;21050;-65
2022/02/02 08:07:13;;;;;;;10.95;6.70;;;;;;;-1.60;55.41;99231.34;1733642;81;21027;-63
2022/02/02 08:09:50;;;;;;;9.40;6.23;;;;;;;-1.55;55.39;99228.80;1736924;81;21078;-66
2022/02/02 08:12:15;;;;;;;11.80;7.37;;;;;;;-1.46;55.68;99222.75;1742275;80;21086;-68
2022/02/02 08:14:39;;;;;;;15.07;7.37;;;;;;;-1.40;55.46;99224.31;1750508;80;21085;-66
2022/02/02 08:17:06;;;;;;;11.63;8.43;;;;;;;-1.39;55.91;99227.28;1751484;80;21021;-66
2022/02/02 08:19:33;;;;;;;14.83;9.30;;;;;;;-1.32;56.00;99221.48;1754503;80;21030;-68
2022/02/02 08:22:01;;;;;;;11.07;8.10;;;;;;;-1.25;56.01;99229.94;1747386;80;21013;-68
2022/02/02 08:24:27;;;;;;;9.10;6.87;;;;;;;-1.19;55.89;99233.33;1750865;80;21486;-65
2022/02/02 08:26:55;;;;;;;15.85;9.10;;;;;;;-1.21;56.24;99237.02;1750686;80;21119;-66
2022/02/02 08:29:23;;;;;;;14.67;9.30;;;;;;;-1.16;56.25;99236.13;1753131;80;20972;-66
2022/02/02 08:31:50;;;;;;;16.90;8.47;;;;;;;-1.13;56.11;99231.09;1754839;80;21018;-65
2022/02/02 08:34:16;;;;;;;13.30;8.68;;;;;;;-1.09;56.38;99235.92;1749790;80;20956;-69
2022/02/02 08:36:49;;;;;;;21.57;8.70;;;;;;;-1.17;56.41;99226.63;1754380;80;21063;-67
2022/02/02 08:39:25;;;;;;;12.70;7.70;;;;;;;-1.20;56.54;99227.73;1754474;80;21318;-66
2022/02/02 08:41:50;;;;;;;17.57;8.67;;;;;;;-1.28;56.88;99217.63;1747716;80;21066;-67
2022/02/02 08:44:21;;;;;;;12.00;7.73;;;;;;;-1.29;57.24;99215.98;1750485;80;21150;-67
2022/02/02 08:47:07;;;;;;;15.37;8.20;;;;;;;-1.32;57.44;99211.84;1751681;80;21622;-68
2022/02/02 08:49:16;;;;;;;16.60;8.70;;;;;;;-1.33;57.69;99210.21;1740289;80;21012;-68
2022/02/02 08:51:46;;;;;;;17.83;8.50;;;;;;;-1.27;57.94;99212.26;1756668;80;20992;-66
2022/02/02 08:54:21;;;;;;;10.77;8.43;;;;;;;-1.20;57.93;99214.66;1744891;81;21114;-66
2022/02/02 08:59:28;;;;;;;12.50;8.03;;;;;;;-1.15;58.19;99207.69;1700055;80;21080;-68
2022/02/02 09:01:51;;;;;;;16.30;8.27;;;;;;;-1.13;58.50;99201.02;1749079;80;21015;-68
2022/02/02 09:07:05;;;;;;;19.10;10.03;;;;;;;-1.05;58.58;99201.16;1753767;80;20995;-65
2022/02/02 09:34:01;;;;;;;19.33;10.00;;;;;;;-0.41;58.15;99180.71;1754670;80;21590;-67
2022/02/02 09:36:29;;;;;;;15.00;11.10;;;;;;;-0.29;58.12;99174.78;1721126;82;21025;-66
2022/02/02 09:38:57;;;;;;;21.13;10.47;;;;;;;-0.14;58.21;99165.13;1709302;82;20994;-67
2022/02/02 09:42:18;;;;;;;17.13;9.97;;;;;;;0.05;57.76;99159.73;1764412;79;22321;-66
2022/02/02 09:44:44;;;;;;;16.57;10.07;;;;;;;0.15;57.44;99159.19;1723276;80;21010;-68
2022/02/02 09:47:29;;;;;;;16.77;10.47;;;;;;;0.21;57.58;99153.83;1656819;85;21085;-67
2022/02/02 09:50:03;;;;;;;16.85;10.55;;;;;;;0.24;57.41;99140.91;1661892;85;21030;-65
2022/02/02 09:52:32;;;;;;;;;;;;;;;0.25;57.47;99147.80;1658972;85;21598;-68
2022/02/02 10:02:46;;;;;;;21.87;11.07;;;;;;;0.31;57.90;99110.00;1624869;86;22212;-66
2022/02/02 10:15:32;;;;;;;22.30;12.10;;;;;;;0.76;58.11;99106.86;1654120;85;21182;-67
2022/02/02 10:18:09;;;;;;;14.67;9.90;;;;;;;0.75;58.05;99103.42;1655238;85;21034;-67
2022/02/02 10:20:34;;;;;;;19.73;11.03;;;;;;;0.80;58.28;99109.50;1646861;85;21144;-66
2022/02/02 10:23:02;;;;;;;15.83;10.13;;;;;;;0.93;58.03;99099.90;1653002;85;21550;-67
2022/02/02 10:25:40;;;;;;;16.90;9.93;;;;;;;0.87;58.20;99099.22;1651515;85;21049;-67
2022/02/02 10:28:19;;;;;;;16.73;9.87;;;;;;;0.93;58.33;99099.40;1647679;85;21169;-68
2022/02/02 10:30:53;;;;;;;20.93;11.40;;;;;;;0.96;58.59;99101.72;1592368;87;21150;-68
2022/02/02 10:33:29;;;;;;;18.93;10.23;;;;;;;0.97;58.64;99095.98;1657136;85;21077;-68
2022/02/02 10:36:11;;;;;;;16.73;10.53;;;;;;;1.08;58.43;99088.33;1654426;85;21563;-65
2022/02/02 10:38:42;;;;;;;;;;;;;;;1.15;58.56;99086.72;1683968;85;21042;-66
2022/02/02 10:43:54;;;;;;;17.07;10.07;;;;;;;1.16;58.75;99077.84;1691681;83;21024;-68
2022/02/02 10:46:55;;;;;;;20.03;11.33;;;;;;;1.19;58.69;99070.98;1661911;83;21692;-68
2022/02/02 10:49:19;;;;;;;20.80;9.97;;;;;;;1.25;58.84;99065.58;1647244;84;21071;-65
2022/02/02 10:51:58;;;;;;;19.70;11.27;;;;;;;1.31;58.89;99061.81;1652033;84;21594;-68
2022/02/02 10:57:01;;;;;;;17.83;10.80;;;;;;;1.49;58.79;99062.20;1634167;84;20127;-68
2022/02/02 11:06:36;;;;;;;15.43;8.55;;;;;;;1.58;58.66;99062.52;1638902;86;21110;-68
2022/02/02 11:07:03;;;;;;;17.70;9.83;;;;;;;1.64;58.58;99042.67;1623812;86;21589;-68
2022/02/02 11:09:32;;;;;;;14.60;9.20;;;;;;;1.66;58.60;99034.97;1619287;86;21174;-68
2022/02/02 11:11:58;;;;;;;16.27;9.37;;;;;;;1.70;58.65;99032.84;1637724;85;21029;-68
2022/02/02 11:14:40;;;;;;;18.17;9.17;;;;;;;1.80;58.65;99033.49;1618100;86;21064;-68
2022/02/02 11:17:12;;;;;;;21.40;10.17;;;;;;;1.81;58.70;99025.11;1672072;84;21157;-68
2022/02/02 11:19:39;;;;;;;15.73;10.70;;;;;;;1.84;58.58;99028.73;1628923;84;21117;-68
2022/02/02 11:22:31;;;;;;;21.80;10.23;;;;;;;1.84;58.63;99022.16;1671702;84;21042;-69
2022/02/02 11:25:11;;;;;;;18.40;10.17;;;;;;;1.87;58.79;99016.09;1674233;84;21642;-67
2022/02/02 11:27:50;;;;;;;16.17;9.03;;;;;;;1.80;59.30;99013.78;1671076;84;21053;-67
2022/02/02 11:30:30;;;;;;;15.03;9.30;;;;;;;1.79;59.54;99023.98;1669477;84;21113;-66
2022/02/02 11:33:03;;;;;;;16.63;10.23;;;;;;;1.82;59.87;99015.75;1673928;84;21121;-66
2022/02/02 11:35:46;;;;;;;16.30;9.27;;;;;;;1.84;60.00;99016.91;1665438;84;21023;-67
2022/02/02 11:38:31;;;;;;;18.97;11.17;;;;;;;1.92;60.30;99011.17;1672579;84;21177;-67
2022/02/02 11:44:22;;;;;;;18.07;9.37;;;;;;;2.02;60.31;98995.73;1644718;85;21133;-66
2022/02/02 11:50:00;;;;;;;17.50;9.17;;;;;;;1.93;60.95;99002.78;1650014;85;21054;-68
2022/02/02 11:52:49;;;;;;;17.33;9.43;;;;;;;1.89;61.56;98996.22;1649557;85;21003;-67
2022/02/02 11:55:33;;;;;;;17.70;10.80;;;;;;;1.88;61.73;98999.33;1576692;89;21114;-67
2022/02/02 11:58:12;;;;;;;15.07;9.23;;;;;;;1.88;61.96;98990.62;1611656;86;21085;-68
2022/02/02 12:00:55;;;;;;;19.23;10.53;;;;;;;1.91;62.05;98996.88;1631337;85;21018;-68
2022/02/02 12:04:03;;;;;;;22.13;10.13;;;;;;;1.93;62.32;98992.27;1671929;84;21055;-69
2022/02/02 12:49:46;;;;;;;20.10;9.80;;;;;;;2.20;63.76;99004.22;1653853;85;21078;-77
2022/02/02 12:57:48;;;;;;;19.13;9.47;;;;;;;2.12;64.07;99010.81;1660116;85;20141;-77
2022/02/02 13:01:15;;;;;;;13.63;8.90;;;;;;;2.03;64.32;99002.11;1663006;85;21166;-78
2022/02/02 13:02:52;;;;;;;14.90;8.57;;;;;;;2.04;64.26;99006.89;1639341;85;21154;-76
2022/02/02 13:05:24;;;;;;;16.43;10.57;;;;;;;1.96;64.47;98995.90;1655180;85;21113;-75
2022/02/02 13:07:56;;;;;;;14.33;9.43;;;;;;;1.96;64.47;99012.98;1628435;88;21074;-77
2022/02/02 13:10:29;;;;;;;18.47;10.13;;;;;;;1.88;64.86;99012.96;1659088;85;21078;-78
2022/02/02 13:13:23;;;;;;;15.30;8.87;;;;;;;1.87;64.98;99016.09;1659113;85;21054;-77
2022/02/02 13:15:53;;;;;;;19.70;9.33;;;;;;;1.84;65.17;99021.66;1657241;85;21087;-78
2022/02/02 13:26:20;;;;;;;15.80;9.37;;;;;;;1.90;65.07;99029.38;1663709;85;21519;-80
2022/02/02 13:29:05;;;;;;;14.80;8.93;;;;;;;1.88;65.29;99039.23;1659479;85;21554;-76
2022/02/02 13:31:44;;;;;;;17.50;8.73;;;;;;;1.89;65.22;99040.90;1648373;85;21187;-77
2022/02/02 13:34:30;;;;;;;15.77;9.13;;;;;;;1.86;65.41;99029.39;1656264;85;21050;-78
2022/02/02 14:33:32;;;;;;;17.33;9.30;;;;;;;1.63;68.02;99057.61;1601165;88;21012;-75
2022/02/02 14:36:03;;;;;;;17.67;9.43;;;;;;;1.57;68.37;99060.89;1614040;88;21078;-75
2022/02/02 14:38:38;;;;;;;15.43;10.83;;;;;;;1.52;68.51;99057.42;1584397;89;21082;-72
2022/02/02 14:41:07;;;;;;;15.40;8.63;;;;;;;1.57;68.44;99058.27;1604128;88;21154;-72
2022/02/02 14:43:44;;;;;;;21.20;10.47;;;;;;;1.52;68.64;99053.48;1604263;88;21595;-73
2022/02/02 14:46:04;;;;;;;15.33;11.00;;;;;;;1.58;68.47;99058.58;1608404;88;21138;-72
2022/02/02 14:48:34;;;;;;;21.80;11.07;;;;;;;1.57;68.57;99068.77;1589096;89;21060;-74
2022/02/02 14:53:49;;;;;;;17.90;10.87;;;;;;;1.61;68.39;99062.70;1609332;88;21027;-75
2022/02/02 14:56:33;;;;;;;19.40;11.45;;;;;;;1.63;68.44;99076.50;1636247;86;21066;-74
2022/02/02 15:08:09;;;;;;;21.70;10.73;;;;;;;1.60;68.56;99072.41;1612839;88;21088;-73
2022/02/02 15:30:49;;;;;;;21.10;13.50;;;;;;;1.22;70.38;99074.58;1600566;88;21075;-76
2022/02/02 15:33:11;;;;;;;24.13;11.63;;;;;;;1.21;70.40;99078.70;1599056;87;21086;-75
2022/02/02 15:35:34;;;;;;;23.30;12.83;;;;;;;1.18;70.39;99074.57;1624022;87;21022;-74
2022/02/02 15:38:07;;;;;;;20.03;12.73;;;;;;;1.16;70.67;99075.22;1640522;86;21084;-72
2022/02/02 15:40:45;;;;;;;21.57;13.20;;;;;;;1.13;70.94;99077.69;1638386;86;21045;-75
2022/02/02 15:43:28;;;;;;;24.90;13.07;;;;;;;1.12;70.81;99076.02;1639141;86;21106;-72
2022/02/02 15:58:01;;;;;;;18.73;11.87;;;;;;;0.96;71.89;99092.54;1634501;86;21129;-73
2022/02/02 15:59:28;;;;;;;20.17;13.27;;;;;;;0.92;72.22;99097.77;1622917;87;21512;-75
2022/02/02 16:02:30;;;;;;;21.87;12.50;;;;;;;0.92;72.32;99092.53;1619902;88;21062;-74
2022/02/02 16:04:14;;;;;;;19.87;12.07;;;;;;;0.91;72.45;99092.67;1592475;88;21519;-82
2022/02/02 16:06:39;;;;;;;21.17;12.30;;;;;;;0.91;72.34;99089.55;1631396;86;21030;-81
2022/02/02 16:11:39;;;;;;;20.77;13.03;;;;;;;0.92;72.62;99103.02;1633024;86;21090;-78
2022/02/02 16:14:12;;;;;;;25.65;12.40;;;;;;;0.83;73.18;99105.73;1642790;86;21103;-75
2022/02/02 16:37:57;;;;;;;25.57;16.07;;;;;;;0.85;73.50;99099.38;1603292;88;21071;-81
2022/02/02 16:40:30;;;;;;;28.77;15.00;;;;;;;0.82;73.81;99105.41;1633998;85;21018;-78
2022/02/02 16:45:36;;;;;;;27.93;15.93;;;;;;;0.84;73.86;99127.88;1618463;84;21041;-78
2022/02/02 16:48:03;;;;;;;26.03;15.53;;;;;;;0.83;74.02;99121.47;1580975;89;21094;-79
2022/02/02 16:50:34;;;;;;;26.07;17.80;;;;;;;0.82;74.11;99120.66;1578949;90;21367;-79
2022/02/02 16:53:03;;;;;;;30.37;17.53;;;;;;;0.80;74.16;99117.37;1584451;89;21060;-80
2022/02/02 16:55:37;;;;;;;29.83;17.57;;;;;;;0.85;73.95;99120.36;1571962;89;21021;-80
2022/02/02 16:58:20;;;;;;;28.73;17.07;;;;;;;0.82;74.15;99131.15;1596021;88;21021;-77
2022/02/02 17:35:42;;;;;;;31.70;20.55;;;;;;;0.56;75.82;99121.97;1633731;87;20990;-79
2022/02/02 17:38:12;;;;;;;32.97;19.33;;;;;;;0.60;75.71;99114.12;1637328;86;20971;-80
2022/02/02 18:02:56;;;;;;;37.77;21.13;;;;;;;0.58;75.85;99114.77;1589974;88;21145;-81
2022/02/02 18:20:30;;;;;;;30.45;19.20;;;;;;;0.64;75.90;99125.13;1606947;87;21072;-82
2022/02/02 18:23:11;;;;;;;29.40;19.30;;;;;;;0.64;75.86;99123.82;1628780;86;21024;-83
2022/02/02 18:25:49;;;;;;;29.13;19.43;;;;;;;0.60;75.96;99118.55;1620389;87;21063;-72
2022/02/02 18:29:18;;;;;;;31.87;20.70;;;;;;;0.55;76.21;99120.34;1623508;87;21028;-84
2022/02/02 18:33:38;;;;;;;35.53;20.17;;;;;;;0.55;76.31;99113.29;1622821;86;21057;-82
2022/02/02 18:36:04;;;;;;;32.40;21.20;;;;;;;0.50;76.50;99114.23;1602716;88;21104;-83
2022/02/02 18:39:32;;;;;;;31.83;20.93;;;;;;;0.48;76.61;99121.43;1624585;87;21229;-84
2022/02/02 18:46:35;;;;;;;31.23;20.43;;;;;;;0.53;76.69;99122.30;1616749;88;21599;-76
2022/02/02 18:49:08;;;;;;;28.70;18.53;;;;;;;0.54;76.81;99123.42;1618261;88;21100;-81
2022/02/02 18:54:36;;;;;;;31.87;18.17;;;;;;;0.55;76.86;99118.53;1622491;87;21060;-83
2022/02/02 18:57:10;;;;;;;38.07;20.97;;;;;;;0.55;77.14;99132.95;1614959;87;21068;-85
2022/02/02 18:59:52;;;;;;;37.30;21.53;;;;;;;0.53;77.21;99130.98;1618832;88;21117;-77
2022/02/02 20:11:38;;;;;;;30.73;19.93;;;;;;;0.96;77.75;99144.17;1628121;85;21079;-76
2022/02/02 20:14:06;;;;;;;29.07;18.83;;;;;;;0.96;77.68;99145.02;1649111;87;21131;-75
2022/02/02 20:16:32;;;;;;;31.67;19.20;;;;;;;0.88;77.85;99138.39;1650674;86;21051;-76
2022/02/02 20:19:01;;;;;;;31.57;19.07;;;;;;;0.84;77.94;99137.56;1628014;87;21007;-76
2022/02/02 20:21:34;;;;;;;33.50;19.50;;;;;;;0.93;77.80;99139.25;1650576;85;21071;-77
2022/02/02 20:24:00;;;;;;;28.40;17.73;;;;;;;0.91;77.85;99141.21;1649856;85;20976;-76
2022/02/02 20:26:30;;;;;;;29.83;19.30;;;;;;;0.88;77.98;99143.64;1629622;85;21088;-76
2022/02/02 20:29:01;;;;;;;31.83;18.77;;;;;;;0.89;78.00;99136.11;1650614;85;20995;-76
2022/02/02 20:31:29;;;;;;;28.27;17.67;;;;;;;0.89;78.12;99140.05;1650136;87;21084;-76
2022/02/02 20:33:56;;;;;;;29.73;19.03;;;;;;;0.89;78.27;99145.80;1650903;85;21544;-77
2022/02/02 20:36:23;;;;;;;29.73;19.63;;;;;;;0.94;78.08;99140.88;1650434;87;21100;-76
2022/02/02 20:38:48;;;;;;;30.77;19.45;;;;;;;0.97;77.96;99145.33;1651001;86;21570;-77
2022/02/02 20:41:15;;;;;;;29.87;18.73;;;;;;;0.90;78.19;99147.42;1650584;86;21080;-76
2022/02/02 20:44:00;;;;;;;27.73;17.67;;;;;;;0.87;78.42;99153.81;1650905;85;21052;-73
2022/02/02 20:46:35;;;;;;;34.13;19.13;;;;;;;0.83;78.54;99147.23;1640747;86;21495;-74
2022/02/02 21:10:25;;;;;;;25.70;17.10;;;;;;;0.83;79.00;99172.16;1628653;87;21107;-74
2022/02/02 21:15:35;;;;;;;31.13;16.67;;;;;;;0.82;79.32;99169.19;1650701;85;21634;-75
2022/02/02 21:18:08;;;;;;;22.27;15.90;;;;;;;0.89;79.04;99171.53;1650189;85;21081;-76
2022/02/02 21:20:35;;;;;;;26.23;16.53;;;;;;;0.87;79.11;99172.18;1648102;85;21440;-76
2022/02/02 21:23:05;;;;;;;22.60;16.30;;;;;;;0.80;79.31;99165.90;1650486;85;21023;-75
2022/02/02 21:28:07;;;;;;;28.43;16.87;;;;;;;0.87;79.23;99172.18;1650825;85;21087;-76
2022/02/02 21:30:37;;;;;;;31.10;17.23;;;;;;;0.83;79.39;99176.56;1650620;85;21024;-75
2022/02/02 21:33:04;;;;;;;25.40;17.60;;;;;;;0.77;79.47;99182.78;1638365;86;21062;-74
2022/02/02 21:35:32;;;;;;;27.63;18.23;;;;;;;0.77;79.69;99176.69;1649737;85;21067;-71
2022/02/02 21:38:06;;;;;;;26.00;16.87;;;;;;;0.75;79.42;99167.69;1651238;85;21020;-71
2022/02/02 21:40:30;;;;;;;29.40;18.63;;;;;;;0.78;79.57;99179.16;1650392;85;22194;-74
2022/02/02 21:42:58;;;;;;;30.53;18.43;;;;;;;0.79;79.60;99190.47;1651353;85;21591;-75
2022/02/02 21:45:28;;;;;;;24.17;17.23;;;;;;;0.76;79.72;99188.17;1648494;85;21202;-77
2022/02/02 21:47:56;;;;;;;25.70;17.63;;;;;;;0.90;79.34;99196.77;1649361;85;21035;-76
2022/02/02 21:50:23;;;;;;;28.53;16.73;;;;;;;0.91;79.24;99203.69;1650505;85;20973;-74
2022/02/02 21:52:51;;;;;;;24.50;16.23;;;;;;;0.83;79.49;99207.58;1649275;85;21106;-76
2022/02/02 21:58:21;;;;;;;26.50;16.00;;;;;;;0.92;79.50;99208.44;1817003;78;22802;-76
2022/02/02 22:00:48;;;;;;;27.93;17.00;;;;;;;0.88;79.26;99205.79;1764328;79;21026;-75
2022/02/02 22:03:14;;;;;;;25.82;17.35;;;;;;;0.77;79.58;99212.95;1713473;82;21601;-75
2022/02/02 22:05:40;;;;;;;25.60;16.42;;;;;;;0.77;79.65;99213.41;1730352;81;21067;-73
2022/02/02 22:08:09;;;;;;;23.52;15.58;;;;;;;0.87;79.41;99214.66;1726853;81;21529;-76
2022/02/02 22:10:39;;;;;;;23.73;16.20;;;;;;;0.90;79.29;99206.45;1722789;81;21045;-76
2022/02/02 22:13:06;;;;;;;26.03;16.33;;;;;;;0.85;79.35;99203.00;1755608;80;20950;-75
2022/02/02 22:15:42;;;;;;;23.70;16.43;;;;;;;0.81;79.37;99202.97;1723970;81;21017;-76
2022/02/02 22:18:08;;;;;;;27.13;16.67;;;;;;;0.89;79.29;99206.95;1764609;80;21779;-77
2022/02/02 22:20:34;;;;;;;28.47;16.70;;;;;;;0.92;79.07;99210.59;1730219;81;21086;-77
2022/02/02 22:23:01;;;;;;;26.60;15.58;;;;;;;0.85;79.33;99221.36;1676465;83;21009;-77
2022/02/02 22:25:27;;;;;;;24.43;14.58;;;;;;;0.84;79.42;99217.08;1685612;84;21069;-76
2022/02/02 22:27:54;;;;;;;25.73;17.03;;;;;;;0.92;79.21;99213.22;1736781;81;21057;-76
2022/02/02 22:30:20;;;;;;;21.97;16.75;;;;;;;0.97;79.00;99214.05;1738745;81;20998;-75
2022/02/02 22:32:47;;;;;;;27.07;18.02;;;;;;;0.91;79.15;99217.30;1718791;81;21090;-76
2022/02/02 22:35:15;;;;;;;22.90;14.90;;;;;;;0.85;79.35;99221.36;1693166;82;21100;-76